createdAt,value
2019-01-05T00:01:45.858Z,2.90
2019-01-05T00:04:30.991Z,2.77
2019-01-05T00:07:10.223Z,2.90
2019-01-05T00:10:03.347Z,3.00
2019-01-05T00:12:49.680Z,2.80
2019-01-05T00:15:43.560Z,3.20
2019-01-05T00:18:34.391Z,2.77
2019-01-05T00:21:31.301Z,2.93
2019-01-05T00:24:21.930Z,3.23
2019-01-05T00:27:08.111Z,2.73
2019-01-05T00:29:58.883Z,2.90
2019-01-05T00:32:59.056Z,3.40
2019-01-05T00:36:13.146Z,3.50
2019-01-05T00:39:08.895Z,3.07
2019-01-05T00:42:01.728Z,3.57
2019-01-05T00:44:49.666Z,3.50
2019-01-05T00:47:35.750Z,2.63
2019-01-05T00:50:29.814Z,3.20
2019-01-05T00:53:17.727Z,3.00
2019-01-05T00:56:09.298Z,2.93
2019-01-05T00:58:59.994Z,3.20
2019-01-05T01:01:50.504Z,3.27
2019-01-05T01:04:38.043Z,3.53
2019-01-05T01:07:25.218Z,3.50
2019-01-05T01:10:03.396Z,3.50
2019-01-05T01:12:49.482Z,3.90
2019-01-05T01:15:35.461Z,3.30
2019-01-05T01:18:37.988Z,3.60
2019-01-05T01:21:23.862Z,3.27
2019-01-05T01:24:14.844Z,3.70
2019-01-05T01:27:08.148Z,3.53
2019-01-05T01:29:58.486Z,3.20
2019-01-05T01:32:45.288Z,3.50
2019-01-05T01:35:38.189Z,3.33
2019-01-05T01:38:53.518Z,3.27
2019-01-05T01:41:57.509Z,3.53
2019-01-05T01:45:03.014Z,3.17
2019-01-05T01:47:58.317Z,3.60
2019-01-05T01:50:51.426Z,2.70
2019-01-05T01:53:37.925Z,2.80
2019-01-05T01:56:48.391Z,2.90
2019-01-05T02:00:06.129Z,2.83
2019-01-05T02:02:55.445Z,2.90
2019-01-05T02:05:42.747Z,2.57
2019-01-05T02:08:32.710Z,2.40
2019-01-05T02:11:30.012Z,2.27
2019-01-05T02:14:18.437Z,2.60
2019-01-05T02:17:32.003Z,2.20
2019-01-05T02:20:34.065Z,2.20
2019-01-05T02:24:21.482Z,1.73
2019-01-05T02:27:57.729Z,2.00
2019-01-05T02:31:28.281Z,1.90
2019-01-05T02:34:53.247Z,1.70
2019-01-05T02:38:17.331Z,2.00
2019-01-05T02:42:06.774Z,1.87
2019-01-05T02:46:08.567Z,2.07
2019-01-05T02:50:11.426Z,1.70
2019-01-05T02:53:56.028Z,1.87
2019-01-05T02:57:55.652Z,1.73
2019-01-05T03:02:04.536Z,1.63
2019-01-05T03:05:45.696Z,1.73
2019-01-05T03:09:45.836Z,1.80
2019-01-05T03:13:23.256Z,1.50
2019-01-05T03:17:29.452Z,1.60
2019-01-05T03:21:16.345Z,1.70
2019-01-05T03:24:55.982Z,2.70
2019-01-05T03:28:57.770Z,1.33
2019-01-05T03:32:45.357Z,1.60
2019-01-05T03:36:28.486Z,1.50
2019-01-05T03:40:23.346Z,1.47
2019-01-05T03:44:08.485Z,1.50
2019-01-05T03:48:01.513Z,1.80
2019-01-05T03:51:46.741Z,1.80
2019-01-05T03:55:36.403Z,1.40
2019-01-05T03:59:16.925Z,1.60
2019-01-05T04:02:48.735Z,1.57
2019-01-05T04:06:35.565Z,1.27
2019-01-05T04:10:30.869Z,1.33
2019-01-05T04:15:03.148Z,1.23
2019-01-05T04:18:55.611Z,1.50
2019-01-05T04:22:49.339Z,1.40
2019-01-05T04:26:36.005Z,1.20
2019-01-05T04:30:43.785Z,1.10
2019-01-05T04:34:31.947Z,1.10
2019-01-05T04:38:09.852Z,1.10
2019-01-05T04:41:58.015Z,1.17
2019-01-05T04:45:33.737Z,1.13
2019-01-05T04:49:31.941Z,1.40
2019-01-05T04:53:15.776Z,1.30
2019-01-05T04:57:25.618Z,1.50
2019-01-05T05:01:25.569Z,1.30
2019-01-05T05:05:22.289Z,1.10
2019-01-05T05:09:49.638Z,1.60
2019-01-05T05:13:32.403Z,1.70
2019-01-05T05:17:06.664Z,1.40
2019-01-05T05:20:40.898Z,1.60
2019-01-05T05:24:12.484Z,1.77
2019-01-05T05:28:02.480Z,1.43
2019-01-05T05:32:00.012Z,1.60
2019-01-05T05:35:50.902Z,1.50
2019-01-05T05:39:56.830Z,1.70
2019-01-05T05:43:46.204Z,1.40
2019-01-05T05:47:38.629Z,1.63
2019-01-05T05:51:26.399Z,1.67
2019-01-05T05:55:05.019Z,1.77
2019-01-05T05:58:39.933Z,1.53
2019-01-05T06:02:05.809Z,1.83
2019-01-05T06:05:39.518Z,1.87
2019-01-05T06:09:29.887Z,1.80
2019-01-05T06:13:27.210Z,1.80
2019-01-05T06:17:37.763Z,1.67
2019-01-05T06:21:23.093Z,1.80
2019-01-05T06:24:47.818Z,2.00
2019-01-05T06:28:49.004Z,1.60
2019-01-05T06:32:20.159Z,1.70
2019-01-05T06:36:04.729Z,1.60
2019-01-05T06:39:45.528Z,1.60
2019-01-05T06:43:17.520Z,1.50
2019-01-05T06:47:18.698Z,1.87
2019-01-05T06:51:11.450Z,1.73
2019-01-05T06:54:51.586Z,2.20
2019-01-05T06:58:57.959Z,1.80
2019-01-05T07:02:41.180Z,2.30
2019-01-05T07:06:15.114Z,2.10
2019-01-05T07:09:45.874Z,2.10
2019-01-05T07:13:17.056Z,2.30
2019-01-05T07:16:57.778Z,2.30
2019-01-05T07:20:53.224Z,2.07
2019-01-05T07:24:50.823Z,2.00
2019-01-05T07:28:31.058Z,2.10
2019-01-05T07:32:24.344Z,2.20
2019-01-05T07:36:16.772Z,2.20
2019-01-05T07:40:07.125Z,2.17
2019-01-05T07:43:39.332Z,2.13
2019-01-05T07:47:27.801Z,2.13
2019-01-05T07:51:15.802Z,1.87
2019-01-05T07:55:14.052Z,1.97
2019-01-05T07:59:21.706Z,2.10
2019-01-05T08:03:05.446Z,1.70
2019-01-05T08:06:51.380Z,3.03
2019-01-05T08:10:53.015Z,1.70
2019-01-05T08:14:40.293Z,1.77
2019-01-05T08:18:31.819Z,1.90
2019-01-05T08:22:47.137Z,2.67
2019-01-05T08:26:47.953Z,2.30
2019-01-05T08:31:02.010Z,2.10
2019-01-05T08:34:58.783Z,2.20
2019-01-05T08:39:07.132Z,1.80
2019-01-05T08:43:03.215Z,2.30
2019-01-05T08:47:11.154Z,2.43
2019-01-05T08:50:45.699Z,1.87
2019-01-05T08:54:31.229Z,2.43
2019-01-05T08:58:17.142Z,2.20
2019-01-05T09:02:29.974Z,2.27
2019-01-05T09:06:13.157Z,2.50
2019-01-05T09:10:15.020Z,2.40
2019-01-05T09:14:17.645Z,2.60
2019-01-05T09:17:34.274Z,2.47
2019-01-05T09:21:03.384Z,2.40
2019-01-05T09:24:59.310Z,2.83
2019-01-05T09:29:16.426Z,2.60
2019-01-05T09:32:56.889Z,2.60
2019-01-05T09:36:42.567Z,3.53
2019-01-05T09:40:17.039Z,2.90
2019-01-05T09:44:22.218Z,2.53
2019-01-05T09:48:34.675Z,2.50
2019-01-05T09:52:51.163Z,2.50
2019-01-05T09:56:30.827Z,2.73
2019-01-05T10:00:15.997Z,2.90
2019-01-05T10:03:45.761Z,2.87
2019-01-05T10:07:32.341Z,2.90
2019-01-05T10:11:27.149Z,2.97
2019-01-05T10:15:14.573Z,2.60
2019-01-05T10:19:15.569Z,2.60
2019-01-05T10:23:35.521Z,2.67
2019-01-05T10:27:20.377Z,2.80
2019-01-05T10:31:02.283Z,2.57
2019-01-05T10:34:48.379Z,2.50
2019-01-05T10:38:39.601Z,2.40
2019-01-05T10:42:31.924Z,2.43
2019-01-05T10:46:00.719Z,2.60
2019-01-05T10:49:50.879Z,2.70
2019-01-05T10:53:25.352Z,2.80
2019-01-05T10:57:15.857Z,2.70
2019-01-05T11:01:14.890Z,2.80
2019-01-05T11:05:02.801Z,3.20
2019-01-05T11:09:25.192Z,3.40
2019-01-05T11:13:07.838Z,3.23
2019-01-05T11:17:18.652Z,3.63
2019-01-05T11:21:05.732Z,3.23
2019-01-05T11:24:51.360Z,3.23
2019-01-05T11:28:50.310Z,3.00
2019-01-05T11:32:38.214Z,3.60
2019-01-05T11:36:31.694Z,3.30
2019-01-05T11:40:18.406Z,4.00
2019-01-05T11:44:15.980Z,3.83
2019-01-05T11:48:10.605Z,3.70
2019-01-05T11:51:48.730Z,3.70
2019-01-05T11:55:28.857Z,3.47
2019-01-05T11:59:10.453Z,3.50
2019-01-05T12:03:24.456Z,3.80
2019-01-05T12:07:34.637Z,3.23
2019-01-05T12:11:29.660Z,3.17
2019-01-05T12:15:13.471Z,3.27
2019-01-05T12:18:51.888Z,2.83
2019-01-05T12:22:49.507Z,2.90
2019-01-05T12:26:30.511Z,3.20
2019-01-05T12:30:21.219Z,2.83
2019-01-05T12:34:41.217Z,3.03
2019-01-05T12:38:33.140Z,3.00
2019-01-05T12:42:19.282Z,2.57
2019-01-05T12:46:16.298Z,2.90
2019-01-05T12:50:03.909Z,2.63
2019-01-05T12:53:44.250Z,3.20
2019-01-05T12:57:30.837Z,3.30
2019-01-05T13:01:44.606Z,3.10
2019-01-05T13:05:47.530Z,3.00
2019-01-05T13:09:44.346Z,3.40
2019-01-05T13:13:35.219Z,3.20
2019-01-05T13:17:37.337Z,3.00
2019-01-05T13:21:25.712Z,3.40
2019-01-05T13:25:03.064Z,3.20
2019-01-05T13:28:50.007Z,3.37
2019-01-05T13:32:57.099Z,2.70
2019-01-05T13:37:01.212Z,2.80
2019-01-05T13:41:04.922Z,3.10
2019-01-05T13:45:25.488Z,3.33
2019-01-05T13:49:19.281Z,3.10
2019-01-05T13:52:57.053Z,2.77
2019-01-05T13:56:02.414Z,2.80
2019-01-05T13:59:02.182Z,2.70
2019-01-05T14:01:52.136Z,2.60
2019-01-05T14:04:39.533Z,2.57
2019-01-05T14:07:32.659Z,2.40
2019-01-05T14:10:11.766Z,2.67
2019-01-05T14:13:08.191Z,2.57
2019-01-05T14:15:55.575Z,2.67
2019-01-05T14:18:58.178Z,2.50
2019-01-05T14:21:44.303Z,2.80
2019-01-05T14:24:30.348Z,2.30
2019-01-05T14:27:18.751Z,2.57
2019-01-05T14:30:04.693Z,2.23
2019-01-05T14:32:58.065Z,2.70
2019-01-05T14:35:45.437Z,2.60
2019-01-05T14:38:28.771Z,2.50
2019-01-05T14:41:25.718Z,2.33
2019-01-05T14:44:13.085Z,2.67
2019-01-05T14:47:03.459Z,2.70
2019-01-05T14:49:53.443Z,2.83
2019-01-05T14:52:48.002Z,2.67
2019-01-05T14:55:33.813Z,2.53
2019-01-05T14:58:19.390Z,2.73
2019-01-05T15:00:58.591Z,2.73
2019-01-05T15:03:44.440Z,2.70
2019-01-05T15:06:40.964Z,3.60
2019-01-05T15:09:43.292Z,3.00
2019-01-05T15:12:22.864Z,3.23
2019-01-05T15:15:13.001Z,3.13
2019-01-05T15:18:09.468Z,3.20
2019-01-05T15:20:56.837Z,3.53
2019-01-05T15:23:49.953Z,3.40
2019-01-05T15:26:43.119Z,3.60
2019-01-05T15:29:48.422Z,3.30
2019-01-05T15:35:48.385Z,3.27
2019-01-05T15:38:42.934Z,3.57
2019-01-05T15:41:33.365Z,3.33
2019-01-05T15:44:20.753Z,3.33
2019-01-05T15:47:06.183Z,3.57
2019-01-05T15:50:05.909Z,3.37
2019-01-05T15:53:11.405Z,3.70
2019-01-05T15:56:10.673Z,4.07
2019-01-05T15:58:56.517Z,3.83
2019-01-05T16:01:55.575Z,4.47
2019-01-05T16:04:42.727Z,3.67
2019-01-05T16:07:32.920Z,4.00
2019-01-05T16:10:18.760Z,3.77
2019-01-05T16:13:04.360Z,3.70
2019-01-05T16:15:50.191Z,4.23
2019-01-05T16:18:55.463Z,3.60
2019-01-05T16:21:41.477Z,3.93
2019-01-05T16:24:37.700Z,4.00
2019-01-05T16:27:29.548Z,4.40
2019-01-05T16:30:15.226Z,3.77
2019-01-05T16:32:56.107Z,4.40
2019-01-05T16:35:46.385Z,4.90
2019-01-05T16:38:32.301Z,4.50
2019-01-05T16:41:13.707Z,4.60
2019-01-05T16:43:57.892Z,5.13
2019-01-05T16:47:00.165Z,5.27
2019-01-05T16:49:53.669Z,4.60
2019-01-05T16:52:41.886Z,5.10
2019-01-05T16:55:27.785Z,4.67
2019-01-05T16:58:15.168Z,5.30
2019-01-05T17:01:02.715Z,5.20
2019-01-05T17:03:48.628Z,5.53
2019-01-05T17:06:32.343Z,5.33
2019-01-05T17:09:25.412Z,6.57
2019-01-05T17:12:16.275Z,5.40
2019-01-05T17:15:09.695Z,5.37
2019-01-05T17:17:55.540Z,6.00
2019-01-05T17:20:33.766Z,6.30
2019-01-05T17:23:26.980Z,6.63
2019-01-05T17:26:29.212Z,6.67
2019-01-05T17:29:22.367Z,6.57
2019-01-05T17:32:03.053Z,6.10
2019-01-05T17:34:58.981Z,6.77
2019-01-05T17:37:46.384Z,6.83
2019-01-05T17:40:32.276Z,6.70
2019-01-05T17:43:29.762Z,6.80
2019-01-05T17:46:32.524Z,6.57
2019-01-05T17:49:18.190Z,6.67
2019-01-05T17:52:23.572Z,6.27
2019-01-05T17:55:09.409Z,7.40
2019-01-05T17:57:55.339Z,7.00
2019-01-05T18:00:41.451Z,6.20
2019-01-05T18:03:30.959Z,7.20
2019-01-05T18:06:21.179Z,7.60
2019-01-05T18:09:14.272Z,6.83
2019-01-05T18:11:58.027Z,8.20
2019-01-05T18:14:43.566Z,7.67
2019-01-05T18:17:33.598Z,8.00
2019-01-05T18:20:20.951Z,7.93
2019-01-05T18:23:06.281Z,8.40
2019-01-05T18:25:56.281Z,7.17
2019-01-05T18:28:52.781Z,7.73
2019-01-05T18:31:52.875Z,7.60
2019-01-05T18:34:49.375Z,8.50
2019-01-05T18:37:35.266Z,8.00
2019-01-05T18:40:21.245Z,7.43
2019-01-05T18:43:07.566Z,8.13
2019-01-05T18:45:53.473Z,7.93
2019-01-05T18:48:46.851Z,7.87
2019-01-05T18:51:39.396Z,7.67
2019-01-05T18:54:26.151Z,8.57
2019-01-05T18:57:22.353Z,8.57
2019-01-05T19:00:08.127Z,8.33
2019-01-05T19:02:53.750Z,7.87
2019-01-05T19:05:41.156Z,8.20
2019-01-05T19:08:22.729Z,7.90
2019-01-05T19:11:08.399Z,8.77
2019-01-05T19:13:54.495Z,7.93
2019-01-05T19:16:40.102Z,8.07
2019-01-05T19:19:39.632Z,7.63
2019-01-05T19:22:29.830Z,8.57
2019-01-05T19:25:29.291Z,8.60
2019-01-05T19:28:15.085Z,8.17
2019-01-05T19:31:02.481Z,9.03
2019-01-05T19:33:48.269Z,10.10
2019-01-05T19:36:53.845Z,9.40
2019-01-05T19:39:41.254Z,10.00
2019-01-05T19:42:27.032Z,9.70
2019-01-05T19:45:17.395Z,9.63
2019-01-05T19:48:22.935Z,9.90
2019-01-05T19:51:10.346Z,10.10
2019-01-05T19:53:56.634Z,9.03
2019-01-05T19:56:46.892Z,10.07
2019-01-05T19:59:28.600Z,9.80
2019-01-05T20:02:09.281Z,9.83
2019-01-05T20:04:56.963Z,10.90
2019-01-05T20:07:47.086Z,10.87
2019-01-05T20:10:49.181Z,10.60
2019-01-05T20:13:48.185Z,10.43
2019-01-05T20:16:47.613Z,10.50
2019-01-05T20:19:33.381Z,10.10
2019-01-05T20:22:20.775Z,8.97
2019-01-05T20:25:06.593Z,9.30
2019-01-05T20:27:56.989Z,10.70
2019-01-05T20:30:50.223Z,10.13
2019-01-05T20:33:44.798Z,10.00
2019-01-05T20:36:38.311Z,9.10
2019-01-05T20:39:27.031Z,8.73
2019-01-05T20:42:14.454Z,9.77
2019-01-05T20:45:00.395Z,9.40
2019-01-05T20:48:02.899Z,8.83
2019-01-05T20:50:53.048Z,9.37
2019-01-05T20:53:40.485Z,8.47
2019-01-05T20:56:45.560Z,8.87
2019-01-05T20:59:29.020Z,9.20
2019-01-05T21:02:16.445Z,9.33
2019-01-05T21:05:19.030Z,9.40
2019-01-05T21:08:04.820Z,8.87
2019-01-05T21:11:01.352Z,8.13
2019-01-05T21:14:03.688Z,7.60
2019-01-05T21:17:02.952Z,6.70
2019-01-05T21:19:56.275Z,6.50
2019-01-05T21:22:52.711Z,6.80
2019-01-05T21:25:40.630Z,5.83
2019-01-05T21:28:26.258Z,5.87
2019-01-05T21:31:25.947Z,5.00
2019-01-05T21:34:13.491Z,4.40
2019-01-05T21:37:06.996Z,4.53
2019-01-05T21:39:57.562Z,3.83
2019-01-05T21:42:48.207Z,3.83
2019-01-05T21:45:38.477Z,3.37
2019-01-05T21:48:29.020Z,4.00
2019-01-05T21:51:28.453Z,3.40
2019-01-05T21:54:23.174Z,3.47
2019-01-05T21:57:10.726Z,3.20
2019-01-05T22:00:16.055Z,3.40
2019-01-05T22:03:01.629Z,3.33
2019-01-05T22:05:51.931Z,2.97
2019-01-05T22:08:48.162Z,3.73
2019-01-05T22:11:33.960Z,3.40
2019-01-05T22:14:15.519Z,3.17
2019-01-05T22:17:14.582Z,3.30
2019-01-05T22:20:00.366Z,4.10
2019-01-05T22:22:37.855Z,3.63
2019-01-05T22:25:24.035Z,3.23
2019-01-05T22:28:10.002Z,3.57
2019-01-05T22:30:55.523Z,3.90
2019-01-05T22:33:41.619Z,3.37
2019-01-05T22:36:25.923Z,3.87
2019-01-05T22:39:14.901Z,3.50
2019-01-05T22:42:05.263Z,3.37
2019-01-05T22:44:55.679Z,3.77
2019-01-05T22:47:41.535Z,3.47
2019-01-05T22:50:27.568Z,3.80
2019-01-05T22:53:21.189Z,3.47
2019-01-05T22:56:14.057Z,3.63
2019-01-05T22:58:59.669Z,3.53
2019-01-05T23:02:05.167Z,3.80
2019-01-05T23:04:55.072Z,3.90
2019-01-05T23:08:00.351Z,3.87
2019-01-05T23:10:49.793Z,4.37
2019-01-05T23:13:37.928Z,4.00
2019-01-05T23:16:25.511Z,4.23
2019-01-05T23:19:15.965Z,4.07
2019-01-05T23:22:01.694Z,3.87
2019-01-05T23:25:03.627Z,4.20
2019-01-05T23:27:51.018Z,3.90
2019-01-05T23:30:38.772Z,3.77
2019-01-05T23:33:36.436Z,3.73
2019-01-05T23:36:24.283Z,3.80
2019-01-05T23:39:15.660Z,3.67
2019-01-05T23:42:09.552Z,3.87
2019-01-05T23:44:59.954Z,3.63
2019-01-05T23:48:02.209Z,3.90
2019-01-05T23:50:47.998Z,4.33
2019-01-05T23:53:34.172Z,4.63
2019-01-05T23:56:34.582Z,4.70
2019-01-05T23:59:41.808Z,4.70
